Time;durP1;ratioP1;P1;durP2;ratioP2;P2;SDS_P1;SDS_P2;PMS_P1;PMS_P2;Temp;Humidity;BMP_temperature;BMP_pressure;BME280_temperature;BME280_humidity;BME280_pressure;Samples;Min_cycle;Max_cycle;Signal;HPM_P1;HPM_P2
2023/10/22 00:02:00;;;;;;;3.25;2.10;;;18.00;84.60;;;;;;10986667;32;20014;-70
2023/10/22 00:08:03;;;;;;;2.62;1.70;;;17.90;84.70;;;;;;10986381;32;20026;-70
2023/10/22 00:14:07;;;;;;;1.90;1.33;;;17.80;84.70;;;;;;10985734;32;20014;-70
2023/10/22 00:20:09;;;;;;;3.15;2.10;;;17.80;84.60;;;;;;10986659;32;20415;-70
2023/10/22 00:26:15;;;;;;;2.35;1.70;;;17.70;84.60;;;;;;10981595;32;20085;-69
2023/10/22 00:32:19;;;;;;;2.97;2.00;;;17.60;85.00;;;;;;10986251;32;20376;-70
2023/10/22 00:38:21;;;;;;;7.35;2.65;;;17.60;85.20;;;;;;10985432;32;20414;-70
2023/10/22 00:44:24;;;;;;;2.42;1.60;;;17.70;85.00;;;;;;10970239;32;20404;-70
2023/10/22 00:50:26;;;;;;;2.60;2.10;;;17.70;84.90;;;;;;10969709;32;20444;-70
2023/10/22 00:56:29;;;;;;;3.75;1.85;;;17.70;84.80;;;;;;10984863;32;20023;-70
2023/10/22 01:02:31;;;;;;;2.62;2.15;;;17.70;84.80;;;;;;10983754;32;20022;-70
2023/10/22 01:08:34;;;;;;;3.22;1.70;;;17.70;84.90;;;;;;10983410;32;20057;-70
2023/10/22 01:14:36;;;;;;;1.95;1.80;;;17.70;84.90;;;;;;10984607;32;20018;-69
2023/10/22 01:20:39;;;;;;;2.33;1.58;;;17.60;84.90;;;;;;10969029;32;20038;-70
2023/10/22 01:26:41;;;;;;;5.82;2.72;;;17.60;84.90;;;;;;10983651;32;20022;-70
2023/10/22 01:32:43;;;;;;;1.62;1.52;;;17.60;84.90;;;;;;10984039;32;20320;-70
2023/10/22 01:38:46;;;;;;;3.62;2.42;;;17.50;84.80;;;;;;10982556;32;20018;-70
2023/10/22 01:44:48;;;;;;;2.72;2.12;;;17.50;84.80;;;;;;10982912;32;20022;-70
2023/10/22 01:50:50;;;;;;;4.37;2.53;;;17.50;84.80;;;;;;10981778;32;20022;-70
2023/10/22 01:56:53;;;;;;;2.00;1.70;;;17.40;85.00;;;;;;10981942;32;20019;-70
2023/10/22 02:02:55;;;;;;;2.00;1.80;;;17.40;85.10;;;;;;10977718;32;20025;-70
2023/10/22 02:09:00;;;;;;;2.95;2.25;;;17.30;85.10;;;;;;10980806;32;20125;-70
2023/10/22 02:15:02;;;;;;;2.47;1.70;;;17.30;85.10;;;;;;10981277;32;20420;-70
2023/10/22 02:21:04;;;;;;;1.87;1.70;;;17.20;85.00;;;;;;10967657;32;20018;-70
2023/10/22 02:27:06;;;;;;;1.95;1.45;;;17.20;85.10;;;;;;10976147;32;20023;-70
2023/10/22 02:33:09;;;;;;;3.08;1.87;;;17.10;85.00;;;;;;10981468;32;20332;-70
2023/10/22 02:39:12;;;;;;;1.90;1.52;;;17.10;85.10;;;;;;10980530;32;20015;-70
2023/10/22 02:45:14;;;;;;;1.48;1.27;;;17.10;85.20;;;;;;10980942;32;20049;-70
2023/10/22 02:51:16;;;;;;;2.70;1.95;;;17.00;85.00;;;;;;10979524;32;20041;-70
2023/10/22 02:57:18;;;;;;;3.30;2.37;;;17.00;85.10;;;;;;10980681;32;20049;-70
2023/10/22 03:03:20;;;;;;;4.05;2.50;;;17.00;85.00;;;;;;10980548;32;20044;-70
2023/10/22 03:09:22;;;;;;;2.15;1.67;;;16.90;85.10;;;;;;10980622;32;20066;-70
2023/10/22 03:15:24;;;;;;;6.70;2.97;;;16.90;85.10;;;;;;10979819;32;20042;-70
2023/10/22 03:21:28;;;;;;;2.67;2.15;;;16.90;85.10;;;;;;10980389;32;20333;-70
2023/10/22 03:27:30;;;;;;;2.95;2.30;;;16.90;85.10;;;;;;10978983;32;20041;-70
2023/10/22 03:33:32;;;;;;;2.78;1.87;;;16.80;85.00;;;;;;10980407;32;20058;-70
2023/10/22 03:39:37;;;;;;;3.55;2.40;;;16.80;85.00;;;;;;10987485;32;20344;-70
2023/10/22 03:45:39;;;;;;;3.35;2.30;;;16.70;85.10;;;;;;10985337;32;20027;-70
2023/10/22 03:51:41;;;;;;;2.85;1.95;;;16.70;85.10;;;;;;10986131;32;20065;-70
2023/10/22 03:57:43;;;;;;;1.80;1.60;;;16.70;85.00;;;;;;10986886;32;20035;-70
2023/10/22 04:03:45;;;;;;;1.42;1.33;;;16.60;85.00;;;;;;10973281;32;20100;-70
2023/10/22 04:09:47;;;;;;;2.58;1.98;;;16.50;85.10;;;;;;10985162;32;20022;-70
2023/10/22 04:15:49;;;;;;;2.62;2.08;;;16.50;85.10;;;;;;10986253;32;20033;-70
2023/10/22 04:21:51;;;;;;;2.05;1.80;;;16.50;85.00;;;;;;10986175;32;20027;-70
2023/10/22 04:27:54;;;;;;;2.58;2.17;;;16.50;85.00;;;;;;10986364;32;20030;-70
2023/10/22 04:33:56;;;;;;;3.08;2.05;;;16.40;84.90;;;;;;10984960;32;20049;-70
2023/10/22 04:39:58;;;;;;;3.28;2.35;;;16.30;84.90;;;;;;10985413;32;20056;-70
2023/10/22 04:46:00;;;;;;;4.10;2.50;;;16.30;85.00;;;;;;10984471;32;20049;-70
2023/10/22 04:52:03;;;;;;;2.30;1.67;;;16.30;85.00;;;;;;10983923;32;20058;-70
2023/10/22 04:58:05;;;;;;;3.22;2.42;;;16.20;85.00;;;;;;10983725;32;20022;-70
2023/10/22 05:04:07;;;;;;;6.12;1.80;;;16.20;85.10;;;;;;10984459;32;20018;-70
2023/10/22 05:10:09;;;;;;;2.50;2.12;;;16.20;85.20;;;;;;10984261;32;20423;-70
2023/10/22 05:16:11;;;;;;;2.75;2.28;;;16.20;85.10;;;;;;10983526;32;20016;-70
2023/10/22 05:22:13;;;;;;;2.45;1.52;;;16.20;85.00;;;;;;10984361;32;20042;-70
2023/10/22 05:28:15;;;;;;;2.30;1.95;;;16.10;85.00;;;;;;10982944;32;20010;-70
2023/10/22 05:34:17;;;;;;;3.00;2.55;;;16.00;84.90;;;;;;10983418;32;20023;-70
2023/10/22 05:40:19;;;;;;;2.83;2.08;;;16.00;84.90;;;;;;10983109;32;20384;-70
2023/10/22 05:46:25;;;;;;;3.80;2.90;;;16.00;84.90;;;;;;10982937;32;20324;-70
2023/10/22 05:52:28;;;;;;;2.25;1.58;;;16.00;85.00;;;;;;10981709;32;20477;-70
2023/10/22 05:58:30;;;;;;;1.87;1.65;;;15.90;84.90;;;;;;10983182;32;20381;-70
2023/10/22 06:04:32;;;;;;;1.92;1.73;;;15.80;85.00;;;;;;10978745;32;20062;-70
2023/10/22 06:10:46;;;;;;;3.53;2.53;;;15.80;85.20;;;;;;10982252;32;20027;-70
2023/10/22 06:16:48;;;;;;;2.53;1.90;;;15.90;85.10;;;;;;10981869;32;20018;-70
2023/10/22 06:22:50;;;;;;;2.80;2.35;;;16.00;85.10;;;;;;10981188;32;20026;-70
2023/10/22 06:28:52;;;;;;;2.12;1.92;;;15.90;85.10;;;;;;10980892;32;20027;-70
2023/10/22 06:34:54;;;;;;;2.60;2.05;;;15.90;85.10;;;;;;10981374;32;20010;-70
2023/10/22 06:40:56;;;;;;;3.70;2.60;;;15.90;85.10;;;;;;10981183;32;20206;-70
2023/10/22 06:46:58;;;;;;;3.47;2.37;;;15.90;85.20;;;;;;10980945;32;20301;-70
2023/10/22 06:53:00;;;;;;;2.83;2.20;;;16.00;85.20;;;;;;10980842;27;20031;-70
2023/10/22 06:59:03;;;;;;;4.22;2.55;;;16.00;85.10;;;;;;10966005;32;20069;-70
2023/10/22 07:05:10;;;;;;;3.37;2.60;;;16.00;85.20;;;;;;10980058;32;20041;-70
2023/10/22 07:11:12;;;;;;;3.62;2.05;;;16.10;85.20;;;;;;10967599;32;20025;-70
2023/10/22 07:17:14;;;;;;;3.25;2.60;;;16.20;85.20;;;;;;10980482;32;20019;-70
2023/10/22 07:23:17;;;;;;;4.05;2.62;;;16.20;85.10;;;;;;10980187;32;20015;-70
2023/10/22 07:29:19;;;;;;;3.80;3.20;;;16.30;85.10;;;;;;10980057;32;20414;-70
2023/10/22 07:35:21;;;;;;;6.68;3.72;;;16.30;85.10;;;;;;10978875;32;20042;-70
2023/10/22 07:41:25;;;;;;;6.43;4.12;;;16.50;85.20;;;;;;10979920;32;20332;-70
2023/10/22 07:47:27;;;;;;;6.47;4.57;;;16.50;85.10;;;;;;10979918;32;20037;-70
2023/10/22 07:53:33;;;;;;;5.47;3.53;;;16.60;85.00;;;;;;10964889;32;20027;-70
2023/10/22 07:59:55;;;;;;;4.70;3.65;;;16.70;85.00;;;;;;10964355;32;20045;-70
2023/10/22 08:05:58;;;;;;;5.47;4.00;;;16.80;84.90;;;;;;10976467;32;20042;-70
2023/10/22 08:12:00;;;;;;;3.45;2.75;;;16.80;84.90;;;;;;10966509;32;20011;-70
2023/10/22 08:18:03;;;;;;;8.15;5.03;;;16.90;84.90;;;;;;10981171;32;20072;-70
2023/10/22 08:24:18;;;;;;;5.50;3.60;;;17.00;85.00;;;;;;10986042;32;20320;-70
2023/10/22 08:30:20;;;;;;;5.68;4.00;;;17.00;85.10;;;;;;10985664;32;20033;-70
2023/10/22 08:36:22;;;;;;;7.07;3.28;;;17.10;85.20;;;;;;10985403;32;20038;-70
2023/10/22 08:42:26;;;;;;;8.07;5.22;;;17.20;85.20;;;;;;10985109;32;20045;-70
2023/10/22 08:48:31;;;;;;;6.47;3.70;;;17.20;85.10;;;;;;10984792;32;20056;-70
2023/10/22 08:54:33;;;;;;;6.95;4.00;;;17.30;85.00;;;;;;10983314;32;20054;-70
2023/10/22 09:00:38;;;;;;;7.82;5.00;;;17.40;84.90;;;;;;10984132;32;20038;-70
2023/10/22 09:06:40;;;;;;;7.68;4.55;;;17.50;84.80;;;;;;10983722;32;20023;-70
2023/10/22 09:12:42;;;;;;;7.68;4.62;;;17.50;84.70;;;;;;10984144;32;20533;-70
2023/10/22 09:18:45;;;;;;;7.10;4.53;;;17.60;84.90;;;;;;10984036;32;20384;-70
2023/10/22 09:24:49;;;;;;;6.68;4.72;;;17.70;85.00;;;;;;10983687;32;20018;-70
2023/10/22 09:30:59;;;;;;;6.50;5.18;;;17.70;84.80;;;;;;10983258;32;20044;-70
2023/10/22 09:37:01;;;;;;;5.85;3.80;;;17.80;84.70;;;;;;10982502;32;20019;-70
2023/10/22 09:43:04;;;;;;;8.23;5.20;;;17.80;84.50;;;;;;10981313;32;20346;-70
2023/10/22 09:49:09;;;;;;;6.85;4.05;;;18.00;84.30;;;;;;10982631;32;20317;-70
2023/10/22 09:55:13;;;;;;;7.62;4.53;;;18.20;84.10;;;;;;10981990;32;20297;-70
2023/10/22 10:01:15;;;;;;;6.25;4.25;;;18.20;84.10;;;;;;10982486;32;20041;-70
2023/10/22 10:07:18;;;;;;;11.82;4.12;;;18.30;83.90;;;;;;10982233;32;20320;-71
2023/10/22 10:13:20;;;;;;;8.48;5.20;;;18.40;83.90;;;;;;10978058;32;20403;-70
2023/10/22 10:19:24;;;;;;;5.72;3.25;;;18.50;84.10;;;;;;10967268;32;20317;-70
2023/10/22 10:25:31;;;;;;;7.03;3.72;;;18.70;84.00;;;;;;10961977;32;20343;-70
2023/10/22 10:31:34;;;;;;;5.65;3.53;;;18.80;83.70;;;;;;10980805;32;20023;-71
2023/10/22 10:37:36;;;;;;;8.93;4.50;;;19.00;83.30;;;;;;10981289;32;20006;-70
2023/10/22 10:44:07;;;;;;;6.15;3.72;;;19.10;82.80;;;;;;10967213;32;20285;-71
2023/10/22 10:50:11;;;;;;;5.55;2.85;;;19.30;82.20;;;;;;10981001;32;20336;-71
2023/10/22 10:56:13;;;;;;;6.10;3.15;;;19.50;82.00;;;;;;10981137;32;20466;-71
2023/10/22 11:02:16;;;;;;;7.07;3.05;;;19.80;81.50;;;;;;10952438;32;20042;-69
2023/10/22 11:08:19;;;;;;;3.85;2.28;;;20.00;80.90;;;;;;10980519;32;20324;-70
2023/10/22 11:14:22;;;;;;;8.20;2.95;;;20.20;80.00;;;;;;10979251;32;20041;-71
2023/10/22 11:20:24;;;;;;;3.45;1.75;;;20.40;79.20;;;;;;10980291;32;20023;-70
2023/10/22 11:26:26;;;;;;;5.05;2.37;;;20.60;78.80;;;;;;10980172;32;20019;-71
2023/10/22 11:32:29;;;;;;;5.12;1.77;;;20.70;77.90;;;;;;10978976;32;20023;-71
2023/10/22 11:38:31;;;;;;;4.70;1.87;;;20.80;77.90;;;;;;10979040;32;20037;-70
2023/10/22 11:44:35;;;;;;;9.38;1.73;;;20.80;76.80;;;;;;10979419;32;20427;-71
2023/10/22 11:50:37;;;;;;;4.35;1.27;;;20.80;76.40;;;;;;10980459;32;20332;-71
2023/10/22 11:56:39;;;;;;;4.43;1.85;;;20.80;76.30;;;;;;10987107;32;20414;-70
2023/10/22 12:02:42;;;;;;;2.22;1.30;;;20.80;75.40;;;;;;10973333;32;20007;-70
2023/10/22 12:08:44;;;;;;;5.07;1.73;;;20.80;74.70;;;;;;10986551;32;20019;-71
2023/10/22 12:14:47;;;;;;;4.28;1.77;;;20.80;74.50;;;;;;10971249;32;20030;-70
2023/10/22 12:20:49;;;;;;;5.72;2.65;;;20.80;74.00;;;;;;10986416;32;20019;-70
2023/10/22 12:26:51;;;;;;;1.85;1.17;;;20.70;73.00;;;;;;10984205;32;20404;-70
2023/10/22 12:32:54;;;;;;;6.60;1.70;;;20.70;72.70;;;;;;10985127;32;20077;-69
2023/10/22 12:38:56;;;;;;;6.65;1.83;;;20.70;72.50;;;;;;10985554;32;20039;-70
2023/10/22 12:44:58;;;;;;;1.75;1.00;;;20.70;72.30;;;;;;10985376;32;20015;-70
2023/10/22 12:51:00;;;;;;;5.22;1.52;;;20.60;71.50;;;;;;10969902;32;20035;-70
2023/10/22 12:57:03;;;;;;;2.17;1.33;;;20.70;71.10;;;;;;10970447;32;20022;-70
2023/10/22 13:03:05;;;;;;;4.07;1.40;;;20.70;70.60;;;;;;10983475;32;20332;-70
2023/10/22 13:09:08;;;;;;;2.87;1.25;;;20.80;70.60;;;;;;10983840;32;20060;-70
2023/10/22 13:15:16;;;;;;;4.50;1.83;;;20.80;70.40;;;;;;10984358;32;20019;-70
2023/10/22 13:21:19;;;;;;;1.05;0.68;;;20.80;70.40;;;;;;10984039;32;20019;-70
2023/10/22 13:27:21;;;;;;;1.95;1.17;;;20.90;70.50;;;;;;10982396;32;20037;-71
2023/10/22 13:33:23;;;;;;;6.50;1.90;;;20.90;70.70;;;;;;10983594;32;20077;-70
2023/10/22 13:39:26;;;;;;;3.72;1.40;;;21.00;70.20;;;;;;10983439;32;20068;-70
2023/10/22 13:45:28;;;;;;;4.82;1.83;;;21.00;70.30;;;;;;10981926;32;20065;-69
2023/10/22 13:51:30;;;;;;;2.28;1.30;;;21.10;70.20;;;;;;10982700;32;20461;-70
2023/10/22 13:57:33;;;;;;;5.12;1.65;;;21.10;70.40;;;;;;10968756;32;20023;-69
2023/10/22 14:03:35;;;;;;;9.50;2.62;;;21.20;70.30;;;;;;10981946;32;20060;-70
2023/10/22 14:09:37;;;;;;;2.70;1.65;;;21.00;70.50;;;;;;10982345;32;20014;-70
2023/10/22 14:15:42;;;;;;;2.80;1.17;;;21.00;71.00;;;;;;10981978;32;20015;-70
2023/10/22 14:21:44;;;;;;;7.40;2.37;;;21.00;71.10;;;;;;10980364;32;20076;-70
2023/10/22 14:27:47;;;;;;;7.37;2.08;;;20.90;71.30;;;;;;10981625;32;20014;-70
2023/10/22 14:33:49;;;;;;;2.40;1.55;;;20.80;71.70;;;;;;10979085;32;20045;-70
2023/10/22 14:39:51;;;;;;;5.00;1.98;;;20.80;71.80;;;;;;10981132;32;20321;-70
2023/10/22 14:46:00;;;;;;;3.47;1.80;;;20.80;72.10;;;;;;10966845;32;20049;-70
2023/10/22 14:52:03;;;;;;;3.08;1.83;;;20.70;72.20;;;;;;10751300;27;7081309;-71
2023/10/22 14:58:05;;;;;;;7.07;3.33;;;20.70;72.50;;;;;;10965193;32;20054;-71
2023/10/22 15:04:07;;;;;;;2.78;1.62;;;20.80;72.50;;;;;;10972944;32;20049;-71
2023/10/22 15:10:10;;;;;;;4.72;2.50;;;20.70;72.90;;;;;;10937895;32;20053;-70
2023/10/22 15:16:12;;;;;;;3.03;1.85;;;20.80;72.90;;;;;;10929247;32;20441;-70
2023/10/22 15:22:15;;;;;;;4.28;2.42;;;20.90;72.60;;;;;;10942531;32;20054;-70
2023/10/22 15:28:17;;;;;;;3.78;1.80;;;21.20;71.80;;;;;;10946587;32;20030;-70
2023/10/22 15:34:19;;;;;;;4.12;1.92;;;20.80;72.50;;;;;;10950090;32;20038;-70
2023/10/22 15:40:21;;;;;;;6.87;2.58;;;20.60;73.20;;;;;;10936045;32;20026;-70
2023/10/22 15:46:24;;;;;;;6.57;1.92;;;20.40;73.70;;;;;;10948358;32;20019;-70
2023/10/22 15:52:26;;;;;;;3.85;2.10;;;20.30;74.10;;;;;;10931711;32;20031;-70
2023/10/22 15:58:28;;;;;;;4.35;2.00;;;20.20;74.30;;;;;;10948457;32;20412;-70
2023/10/22 16:04:30;;;;;;;2.92;1.90;;;20.10;74.70;;;;;;10947828;32;20022;-70
2023/10/22 16:10:32;;;;;;;2.67;1.65;;;20.00;75.00;;;;;;10948263;32;20019;-70
2023/10/22 16:16:34;;;;;;;2.70;1.42;;;19.80;75.30;;;;;;10949221;32;20051;-71
2023/10/22 16:22:37;;;;;;;3.17;2.03;;;19.80;75.50;;;;;;10947719;32;20018;-70
2023/10/22 16:28:39;;;;;;;7.50;2.20;;;19.70;75.70;;;;;;10946786;32;20027;-70
2023/10/22 16:34:41;;;;;;;4.30;2.30;;;19.60;75.90;;;;;;10948226;32;20019;-70
2023/10/22 16:40:43;;;;;;;6.80;2.28;;;19.40;76.10;;;;;;10946338;32;20049;-71
2023/10/22 16:46:46;;;;;;;3.17;1.87;;;19.30;76.40;;;;;;10956770;32;20031;-70
2023/10/22 16:52:48;;;;;;;6.32;4.00;;;19.30;76.50;;;;;;10984257;32;20026;-70
2023/10/22 16:58:51;;;;;;;7.10;2.90;;;19.20;76.70;;;;;;10984775;32;20046;-70
2023/10/22 17:04:54;;;;;;;4.57;2.30;;;19.00;76.90;;;;;;10984419;32;20313;-70
2023/10/22 17:10:57;;;;;;;2.75;2.15;;;19.00;77.10;;;;;;10984324;32;20053;-70
2023/10/22 17:17:00;;;;;;;4.95;2.00;;;18.90;77.30;;;;;;10984506;32;20045;-70
2023/10/22 17:23:02;;;;;;;10.18;5.60;;;18.90;77.40;;;;;;10984065;32;20015;-70
2023/10/22 17:29:04;;;;;;;6.47;5.45;;;18.80;77.60;;;;;;10982742;32;20066;-70
2023/10/22 17:35:07;;;;;;;7.28;4.20;;;18.80;77.90;;;;;;10970293;32;20045;-70
2023/10/22 17:41:09;;;;;;;8.65;4.35;;;18.80;78.00;;;;;;10983442;32;20023;-70
2023/10/22 17:47:12;;;;;;;14.98;4.85;;;18.70;78.10;;;;;;10983131;32;20385;-70
2023/10/22 17:53:15;;;;;;;7.70;4.68;;;18.70;78.30;;;;;;10981742;32;20054;-70
2023/10/22 17:59:17;;;;;;;5.05;3.40;;;18.70;78.40;;;;;;10982246;32;20022;-70
2023/10/22 18:05:20;;;;;;;3.60;2.67;;;18.60;78.50;;;;;;10968131;32;20470;-70
2023/10/22 18:11:24;;;;;;;4.78;2.92;;;18.60;78.70;;;;;;10944244;32;20336;-70
2023/10/22 18:17:27;;;;;;;3.60;2.35;;;18.60;78.80;;;;;;10944486;32;20020;-70
2023/10/22 18:23:32;;;;;;;4.93;2.10;;;18.50;79.20;;;;;;10944647;32;20045;-70
2023/10/22 18:29:36;;;;;;;3.28;2.25;;;18.40;79.50;;;;;;10931020;32;20058;-71
2023/10/22 18:35:38;;;;;;;3.78;2.45;;;18.40;79.60;;;;;;10944778;32;20334;-71
2023/10/22 18:41:40;;;;;;;2.95;2.05;;;18.30;79.80;;;;;;10945000;32;20427;-71
2023/10/22 18:47:42;;;;;;;3.20;2.20;;;18.30;80.10;;;;;;10943764;32;20026;-71
2023/10/22 18:53:48;;;;;;;3.12;2.03;;;18.30;80.10;;;;;;10943313;32;20049;-71
2023/10/22 18:59:50;;;;;;;3.90;2.20;;;18.20;80.20;;;;;;10928671;32;20050;-71
2023/10/22 19:05:52;;;;;;;6.70;2.97;;;18.30;80.10;;;;;;10943362;32;20027;-71
2023/10/22 19:11:54;;;;;;;3.22;2.58;;;18.20;80.20;;;;;;10942713;32;20164;-71
2023/10/22 19:17:56;;;;;;;3.17;2.28;;;18.20;80.40;;;;;;10943782;32;20041;-71
2023/10/22 19:23:59;;;;;;;5.18;2.67;;;18.20;80.50;;;;;;10942828;32;20019;-71
2023/10/22 19:30:02;;;;;;;4.25;3.20;;;18.20;80.50;;;;;;10928304;32;20069;-71
2023/10/22 19:36:05;;;;;;;8.63;4.93;;;18.10;80.50;;;;;;10943146;32;20039;-71
2023/10/22 19:42:07;;;;;;;5.68;3.83;;;18.10;80.50;;;;;;10943573;32;20027;-71
2023/10/22 19:48:10;;;;;;;2.90;2.28;;;18.10;80.50;;;;;;10942509;32;20019;-71
2023/10/22 19:54:12;;;;;;;5.00;2.92;;;18.10;80.60;;;;;;10941832;32;20427;-71
2023/10/22 20:00:14;;;;;;;4.78;3.25;;;18.00;80.70;;;;;;10942146;32;20015;-71
2023/10/22 20:06:18;;;;;;;7.57;3.75;;;18.10;80.80;;;;;;10942451;32;20026;-71
2023/10/22 20:12:20;;;;;;;4.40;3.42;;;18.10;80.80;;;;;;10943174;32;20084;-71
2023/10/22 20:18:23;;;;;;;6.65;3.95;;;18.10;80.80;;;;;;10949046;32;20333;-71
2023/10/22 20:24:25;;;;;;;5.87;4.10;;;18.00;80.90;;;;;;10934209;32;20474;-71
2023/10/22 20:30:27;;;;;;;5.85;3.40;;;18.00;81.10;;;;;;10949035;32;20064;-71
2023/10/22 20:36:30;;;;;;;6.65;4.07;;;17.90;81.30;;;;;;10934302;32;20031;-71
2023/10/22 20:49:24;;;;;;;8.93;5.40;;;17.70;82.00;;;;;;10947169;32;20046;-71
2023/10/22 20:55:26;;;;;;;5.53;4.07;;;17.60;82.40;;;;;;10948635;32;20011;-71
2023/10/22 21:01:28;;;;;;;5.55;4.00;;;17.60;82.60;;;;;;10947703;32;20207;-71
2023/10/22 21:07:34;;;;;;;6.65;4.43;;;17.50;82.80;;;;;;10948040;32;20015;-71
2023/10/22 21:13:36;;;;;;;7.10;4.32;;;17.50;82.90;;;;;;10946965;32;20019;-71
2023/10/22 21:19:38;;;;;;;5.25;4.03;;;17.50;83.00;;;;;;10930968;32;20328;-71
2023/10/22 21:25:40;;;;;;;4.50;3.58;;;17.60;82.90;;;;;;10946558;32;20019;-71
2023/10/22 21:31:43;;;;;;;5.18;4.18;;;17.60;82.70;;;;;;10945986;32;20057;-71
2023/10/22 21:37:45;;;;;;;3.42;2.90;;;17.60;82.70;;;;;;10946470;32;20042;-71
2023/10/22 21:43:48;;;;;;;3.87;3.35;;;17.60;82.60;;;;;;10946284;32;20037;-71
2023/10/22 21:49:50;;;;;;;5.45;3.72;;;17.50;82.50;;;;;;10945845;32;20050;-71
2023/10/22 21:55:53;;;;;;;7.10;4.87;;;17.50;82.60;;;;;;10945769;32;20007;-71
2023/10/22 22:01:55;;;;;;;4.82;3.08;;;17.50;82.70;;;;;;10945712;32;20329;-71
2023/10/22 22:07:57;;;;;;;4.62;3.03;;;17.50;82.60;;;;;;10943983;32;20019;-71
2023/10/22 22:13:59;;;;;;;4.12;3.10;;;17.50;82.60;;;;;;10945061;32;20027;-71
2023/10/22 22:20:02;;;;;;;6.10;3.95;;;17.50;82.60;;;;;;10945026;32;20023;-71
2023/10/22 22:26:04;;;;;;;6.18;3.78;;;17.50;82.60;;;;;;10931878;32;20023;-71
2023/10/22 22:32:06;;;;;;;3.83;3.35;;;17.50;82.60;;;;;;10943412;32;20019;-71
2023/10/22 22:38:08;;;;;;;4.43;3.72;;;17.50;82.70;;;;;;10943763;32;20023;-71
2023/10/22 22:44:10;;;;;;;7.03;4.22;;;17.40;82.70;;;;;;10943116;32;20019;-71
2023/10/22 22:50:12;;;;;;;4.40;3.35;;;17.40;82.70;;;;;;10946687;27;20050;-71
2023/10/22 22:56:14;;;;;;;6.47;3.78;;;17.30;82.80;;;;;;10944091;32;20343;-71
2023/10/22 23:02:16;;;;;;;4.22;3.42;;;17.30;82.80;;;;;;10941988;32;20045;-71
2023/10/22 23:08:18;;;;;;;6.82;3.37;;;17.30;82.80;;;;;;10916516;32;20042;-71
2023/10/22 23:14:21;;;;;;;3.67;2.90;;;17.30;82.80;;;;;;10939782;32;20015;-71
2023/10/22 23:20:23;;;;;;;4.70;3.22;;;17.30;82.90;;;;;;10943240;32;20046;-71
2023/10/22 23:26:25;;;;;;;4.05;3.10;;;17.20;82.90;;;;;;10942031;32;20054;-71
2023/10/22 23:32:27;;;;;;;3.83;3.00;;;17.20;82.90;;;;;;10942984;32;20045;-71
2023/10/22 23:38:29;;;;;;;5.93;4.05;;;17.20;83.00;;;;;;10941776;32;20015;-71
2023/10/22 23:44:31;;;;;;;4.18;2.65;;;17.20;83.00;;;;;;10943302;32;20014;-70
2023/10/22 23:50:33;;;;;;;4.90;2.85;;;17.20;83.00;;;;;;10947862;32;20380;-71
2023/10/22 23:56:35;;;;;;;4.30;3.15;;;17.20;83.00;;;;;;10935038;32;20093;-71
